Time;durP1;ratioP1;P1;durP2;ratioP2;P2;SDS_P1;SDS_P2;PMS_P1;PMS_P2;Temp;Humidity;BMP_temperature;BMP_pressure;BME280_temperature;BME280_humidity;BME280_pressure;Samples;Min_cycle;Max_cycle;Signal;HPM_P1;HPM_P2
2023/01/29 00:00:20;;;;;;;20.85;13.35;;;3.70;99.90;;;;;;4997016;28;20036;-86
2023/01/29 00:02:46;;;;;;;23.50;13.00;;;3.70;99.90;;;;;;4997571;28;20554;-85
2023/01/29 00:05:15;;;;;;;24.15;13.32;;;3.70;99.90;;;;;;4964740;28;20136;-86
2023/01/29 00:07:41;;;;;;;22.58;13.27;;;3.60;99.90;;;;;;4965675;28;20038;-86
2023/01/29 00:10:10;;;;;;;21.73;13.57;;;3.60;99.90;;;;;;4997101;28;20040;-86
2023/01/29 00:12:39;;;;;;;22.45;13.75;;;3.60;99.90;;;;;;4996621;28;20445;-85
2023/01/29 00:15:14;;;;;;;22.60;13.70;;;3.60;99.90;;;;;;4996716;28;20084;-87
2023/01/29 00:17:39;;;;;;;25.15;13.27;;;3.60;99.90;;;;;;4980111;28;20034;-85
2023/01/29 00:20:15;;;;;;;21.98;13.57;;;3.50;99.90;;;;;;4996586;28;20026;-84
2023/01/29 00:22:59;;;;;;;24.90;13.35;;;3.50;99.90;;;;;;4997625;28;20058;-87
2023/01/29 00:25:25;;;;;;;20.80;12.07;;;3.50;99.90;;;;;;4964652;28;20437;-84
2023/01/29 00:27:51;;;;;;;22.85;13.68;;;3.50;99.90;;;;;;4996846;28;20038;-86
2023/01/29 00:30:18;;;;;;;24.00;14.07;;;3.50;99.90;;;;;;4996769;28;20034;-86
2023/01/29 00:32:47;;;;;;;21.33;13.23;;;3.50;99.90;;;;;;4980996;28;20483;-86
2023/01/29 00:35:13;;;;;;;22.38;12.57;;;3.50;99.90;;;;;;4996520;28;20513;-86
2023/01/29 00:37:38;;;;;;;23.00;13.20;;;3.50;99.90;;;;;;4997044;28;20053;-85
2023/01/29 00:40:05;;;;;;;24.27;14.32;;;3.40;99.90;;;;;;5013572;28;20535;-86
2023/01/29 00:45:31;;;;;;;21.67;13.98;;;3.30;99.90;;;;;;4969253;28;20363;-86
2023/01/29 00:47:57;;;;;;;20.98;12.98;;;3.30;99.90;;;;;;4980729;28;20091;-86
2023/01/29 00:50:23;;;;;;;19.95;12.68;;;3.30;99.90;;;;;;5013525;28;20038;-85
2023/01/29 00:52:50;;;;;;;22.92;14.20;;;3.30;99.90;;;;;;4980291;28;20038;-85
2023/01/29 00:55:16;;;;;;;21.50;13.23;;;3.20;99.90;;;;;;4996852;28;20083;-86
2023/01/29 00:57:54;;;;;;;23.75;15.20;;;3.20;99.90;;;;;;4980682;28;20093;-85
2023/01/29 01:00:20;;;;;;;26.15;14.60;;;3.20;99.90;;;;;;4996525;28;20037;-85
2023/01/29 01:05:29;;;;;;;22.67;14.10;;;3.20;99.90;;;;;;5013573;28;20045;-85
2023/01/29 01:07:57;;;;;;;23.67;14.60;;;3.20;99.90;;;;;;4980510;28;20042;-86
2023/01/29 01:10:29;;;;;;;24.33;14.45;;;3.20;99.90;;;;;;4980137;28;20038;-88
2023/01/29 01:13:00;;;;;;;24.52;14.43;;;3.20;99.90;;;;;;4996648;28;20173;-86
2023/01/29 01:15:29;;;;;;;23.92;14.93;;;3.20;99.90;;;;;;4996027;28;20049;-86
2023/01/29 01:17:56;;;;;;;25.55;14.55;;;3.20;99.90;;;;;;4996730;28;20030;-86
2023/01/29 01:20:24;;;;;;;30.27;16.08;;;3.20;99.90;;;;;;4980350;28;20119;-87
2023/01/29 01:22:52;;;;;;;25.38;15.52;;;3.20;99.90;;;;;;4996282;28;20093;-86
2023/01/29 01:25:19;;;;;;;23.88;14.43;;;3.20;99.90;;;;;;4996476;28;20033;-87
2023/01/29 01:27:45;;;;;;;26.08;14.77;;;3.20;99.90;;;;;;4996916;28;20038;-86
2023/01/29 01:30:14;;;;;;;23.98;15.35;;;3.20;99.90;;;;;;4999793;28;20056;-85
2023/01/29 01:32:41;;;;;;;27.50;15.27;;;3.10;99.90;;;;;;5017510;28;20469;-85
2023/01/29 01:35:08;;;;;;;25.60;15.77;;;3.20;99.90;;;;;;4999817;28;20460;-87
2023/01/29 01:37:37;;;;;;;27.88;15.63;;;3.20;99.90;;;;;;4999591;28;20061;-85
2023/01/29 01:40:16;;;;;;;29.48;16.00;;;3.10;99.90;;;;;;4999484;28;20548;-85
2023/01/29 01:42:52;;;;;;;25.48;14.90;;;3.20;99.90;;;;;;4999742;28;20064;-87
2023/01/29 01:45:33;;;;;;;24.13;15.50;;;3.20;99.90;;;;;;5000003;28;20042;-86
2023/01/29 01:48:25;;;;;;;26.63;15.88;;;3.10;99.90;;;;;;5017430;28;20061;-86
2023/01/29 01:51:03;;;;;;;25.88;15.55;;;3.10;99.90;;;;;;5017341;28;20037;-86
2023/01/29 01:53:53;;;;;;;24.38;15.05;;;3.10;99.90;;;;;;4999635;28;20064;-86
2023/01/29 01:56:25;;;;;;;27.73;15.85;;;3.00;99.90;;;;;;4999230;28;20441;-85
2023/01/29 01:58:54;;;;;;;26.85;15.30;;;3.10;99.90;;;;;;4999721;28;20037;-85
2023/01/29 02:01:28;;;;;;;23.40;14.77;;;3.00;99.90;;;;;;5016977;28;20038;-86
2023/01/29 02:09:40;;;;;;;25.20;15.70;;;3.00;99.90;;;;;;5016606;28;20049;-87
2023/01/29 02:12:09;;;;;;;27.30;15.63;;;3.00;99.90;;;;;;5015857;28;20066;-86
2023/01/29 02:14:40;;;;;;;25.23;14.98;;;3.00;99.90;;;;;;5014083;28;20132;-86
2023/01/29 02:17:08;;;;;;;25.13;15.90;;;3.00;99.90;;;;;;4999145;28;20037;-86
2023/01/29 02:19:58;;;;;;;25.48;15.32;;;3.00;99.90;;;;;;4999166;28;20064;-86
2023/01/29 02:22:45;;;;;;;26.13;15.23;;;3.00;99.90;;;;;;4998830;28;20038;-86
2023/01/29 02:25:22;;;;;;;25.40;14.93;;;2.90;99.90;;;;;;4998884;28;20045;-86
2023/01/29 02:27:48;;;;;;;26.35;15.27;;;2.90;99.90;;;;;;4999482;28;20041;-86
2023/01/29 02:30:39;;;;;;;25.15;14.73;;;2.90;99.90;;;;;;5016692;28;20030;-87
2023/01/29 02:33:14;;;;;;;24.55;14.95;;;2.80;99.90;;;;;;4999575;28;20030;-86
2023/01/29 02:35:46;;;;;;;26.98;15.90;;;2.80;99.90;;;;;;5000006;28;20038;-86
2023/01/29 02:38:26;;;;;;;25.88;15.18;;;2.80;99.90;;;;;;4999283;28;20061;-84
2023/01/29 02:41:24;;;;;;;27.95;16.45;;;2.80;99.90;;;;;;4998180;28;20038;-86
2023/01/29 02:44:08;;;;;;;25.90;15.48;;;2.80;99.90;;;;;;4998547;28;20040;-86
2023/01/29 02:46:54;;;;;;;26.77;15.95;;;2.80;99.90;;;;;;4998318;28;20097;-86
2023/01/29 02:49:36;;;;;;;25.23;15.10;;;2.70;99.90;;;;;;4998356;28;20041;-86
2023/01/29 02:52:27;;;;;;;25.92;16.23;;;2.80;99.90;;;;;;4999304;28;20041;-86
2023/01/29 02:55:09;;;;;;;25.73;15.13;;;2.70;99.90;;;;;;4998769;28;20541;-86
2023/01/29 02:57:38;;;;;;;25.23;14.40;;;2.70;99.90;;;;;;4998694;28;20046;-85
2023/01/29 03:00:25;;;;;;;28.02;15.30;;;2.70;99.90;;;;;;4998040;28;20096;-86
2023/01/29 03:03:29;;;;;;;28.13;16.38;;;2.70;99.90;;;;;;4998354;28;20034;-86
2023/01/29 03:06:30;;;;;;;28.75;16.48;;;2.70;99.90;;;;;;4998444;28;20038;-86
2023/01/29 03:08:59;;;;;;;29.25;16.52;;;2.70;99.90;;;;;;4992822;28;20042;-85
2023/01/29 03:11:31;;;;;;;29.80;17.70;;;2.70;99.90;;;;;;4997960;28;20124;-86
2023/01/29 03:13:59;;;;;;;25.10;15.35;;;2.60;99.90;;;;;;5015425;28;20050;-86
2023/01/29 03:16:29;;;;;;;29.33;16.75;;;2.60;99.90;;;;;;4998141;28;20064;-86
2023/01/29 03:19:19;;;;;;;28.45;16.05;;;2.60;99.90;;;;;;4998029;28;20033;-85
2023/01/29 03:21:58;;;;;;;26.27;15.77;;;2.60;99.90;;;;;;4984238;28;20111;-85
2023/01/29 03:34:05;;;;;;;27.85;15.95;;;2.60;99.90;;;;;;5014833;28;20115;-86
2023/01/29 03:36:36;;;;;;;30.13;16.48;;;2.60;99.90;;;;;;4997050;28;20038;-86
2023/01/29 03:39:07;;;;;;;;;;;2.60;99.90;;;;;;4997750;28;20046;-86
2023/01/29 03:41:37;;;;;;;29.00;14.75;;;2.50;99.90;;;;;;4996915;28;19916;-86
2023/01/29 03:44:18;;;;;;;27.15;15.80;;;2.60;99.90;;;;;;4997345;28;20045;-86
2023/01/29 03:46:49;;;;;;;27.95;16.13;;;2.50;99.90;;;;;;4997074;28;20137;-86
2023/01/29 03:49:42;;;;;;;32.47;18.05;;;2.50;99.90;;;;;;4997208;28;20092;-85
2023/01/29 03:52:35;;;;;;;27.77;16.33;;;2.60;99.90;;;;;;4996683;28;20034;-86
2023/01/29 03:55:00;;;;;;;27.58;15.45;;;2.60;99.90;;;;;;4997296;28;20084;-85
2023/01/29 03:57:46;;;;;;;27.95;16.27;;;2.60;99.90;;;;;;4997570;28;20370;-86
2023/01/29 04:00:42;;;;;;;27.88;15.82;;;2.60;99.90;;;;;;4997239;28;20030;-86
2023/01/29 04:03:25;;;;;;;27.17;15.93;;;2.60;99.90;;;;;;4997582;28;20038;-86
2023/01/29 04:06:04;;;;;;;27.98;16.02;;;2.60;99.90;;;;;;4997220;28;20052;-86
2023/01/29 04:08:32;;;;;;;28.38;15.80;;;2.60;99.90;;;;;;5014710;28;20084;-86
2023/01/29 04:11:03;;;;;;;28.17;16.00;;;2.70;99.90;;;;;;5015165;28;20038;-86
2023/01/29 04:13:32;;;;;;;25.70;16.05;;;2.70;99.90;;;;;;4996835;28;20038;-86
2023/01/29 04:16:00;;;;;;;30.17;17.40;;;2.70;99.90;;;;;;4997105;28;20355;-84
2023/01/29 04:18:29;;;;;;;27.10;16.45;;;2.80;99.90;;;;;;4996904;28;20035;-86
2023/01/29 04:20:55;;;;;;;27.55;15.55;;;2.80;99.90;;;;;;4981335;28;20038;-86
2023/01/29 04:23:25;;;;;;;27.75;16.75;;;2.80;99.90;;;;;;4980746;28;20386;-86
2023/01/29 04:26:32;;;;;;;29.48;17.38;;;2.80;99.90;;;;;;4996324;28;20096;-86
2023/01/29 04:29:09;;;;;;;28.13;16.77;;;2.80;99.90;;;;;;4996970;28;20478;-86
2023/01/29 04:31:46;;;;;;;30.83;17.27;;;2.80;99.90;;;;;;4996874;28;20132;-86
2023/01/29 04:34:18;;;;;;;28.67;16.25;;;2.80;99.90;;;;;;4996928;28;20466;-86
2023/01/29 04:36:59;;;;;;;28.88;16.42;;;2.80;99.90;;;;;;4996817;28;20038;-86
2023/01/29 04:39:35;;;;;;;29.08;16.98;;;2.70;99.90;;;;;;4996946;28;20034;-86
2023/01/29 04:42:00;;;;;;;31.95;17.33;;;2.70;99.90;;;;;;4997306;28;20038;-85
2023/01/29 04:45:06;;;;;;;30.55;16.27;;;2.80;99.90;;;;;;4996558;28;20049;-86
2023/01/29 04:47:45;;;;;;;29.65;15.93;;;2.80;99.90;;;;;;5014703;28;20114;-87
2023/01/29 04:50:17;;;;;;;31.08;16.98;;;2.80;99.90;;;;;;4996881;28;20068;-86
2023/01/29 04:52:59;;;;;;;26.60;16.30;;;2.80;99.90;;;;;;4996736;28;20040;-86
2023/01/29 04:55:39;;;;;;;27.48;16.52;;;2.80;99.90;;;;;;5014125;28;20057;-86
2023/01/29 04:58:32;;;;;;;27.35;15.48;;;2.90;99.90;;;;;;4996842;28;20114;-86
2023/01/29 05:01:01;;;;;;;28.98;16.63;;;2.90;99.90;;;;;;4997002;28;20034;-86
2023/01/29 05:03:28;;;;;;;27.35;16.20;;;2.90;99.90;;;;;;4998384;28;20066;-86
2023/01/29 05:05:57;;;;;;;29.58;17.05;;;2.90;99.90;;;;;;5000308;28;20045;-86
2023/01/29 05:08:25;;;;;;;29.48;16.30;;;2.90;99.90;;;;;;5000429;28;20038;-86
2023/01/29 05:10:52;;;;;;;32.67;17.23;;;2.90;99.90;;;;;;5000065;28;20529;-86
2023/01/29 05:13:20;;;;;;;32.38;16.60;;;2.90;99.90;;;;;;4999998;28;20048;-85
2023/01/29 05:15:51;;;;;;;31.42;17.67;;;2.90;99.90;;;;;;4983732;28;20557;-86
2023/01/29 05:18:17;;;;;;;30.35;17.27;;;2.80;99.90;;;;;;5000133;28;20037;-86
2023/01/29 05:20:43;;;;;;;30.38;18.10;;;2.80;99.90;;;;;;5017342;28;20117;-86
2023/01/29 05:23:20;;;;;;;30.17;17.42;;;2.80;99.90;;;;;;4984367;28;20084;-86
2023/01/29 05:25:48;;;;;;;32.03;17.63;;;2.80;99.90;;;;;;4999782;28;20034;-86
2023/01/29 05:28:17;;;;;;;30.77;18.08;;;2.80;99.90;;;;;;4983812;28;20033;-86
2023/01/29 05:30:48;;;;;;;29.48;18.05;;;2.70;99.90;;;;;;4984077;28;20041;-86
2023/01/29 05:33:25;;;;;;;31.73;17.80;;;2.80;99.90;;;;;;5000028;28;20026;-86
2023/01/29 05:35:51;;;;;;;28.63;17.02;;;2.80;99.90;;;;;;4999433;28;20072;-86
2023/01/29 05:38:18;;;;;;;29.98;17.00;;;2.80;99.90;;;;;;5017175;28;20151;-86
2023/01/29 05:40:45;;;;;;;30.40;17.95;;;2.80;99.90;;;;;;4983589;28;20128;-86
2023/01/29 05:43:22;;;;;;;33.95;18.92;;;2.80;99.90;;;;;;4984087;28;20042;-84
2023/01/29 05:45:56;;;;;;;30.15;18.23;;;2.90;99.90;;;;;;4999461;28;20038;-84
2023/01/29 05:48:22;;;;;;;30.98;18.48;;;2.90;99.90;;;;;;4999785;28;20049;-86
2023/01/29 05:50:48;;;;;;;31.20;18.58;;;3.00;99.90;;;;;;4999555;28;20030;-86
2023/01/29 05:53:14;;;;;;;34.30;20.10;;;3.00;99.90;;;;;;4999754;28;20484;-84
2023/01/29 05:55:44;;;;;;;33.15;19.63;;;3.00;99.90;;;;;;4983142;28;20057;-84
2023/01/29 05:58:13;;;;;;;30.73;17.98;;;3.00;99.90;;;;;;5016864;28;20109;-84
2023/01/29 06:00:40;;;;;;;32.58;19.45;;;3.00;99.90;;;;;;4999758;28;20060;-85
2023/01/29 06:03:05;;;;;;;31.90;18.88;;;3.00;99.90;;;;;;5016679;28;20034;-84
2023/01/29 06:05:37;;;;;;;34.58;19.27;;;3.00;99.90;;;;;;4999553;28;20118;-84
2023/01/29 06:08:04;;;;;;;34.63;20.85;;;2.90;99.90;;;;;;4999375;28;20049;-84
2023/01/29 06:10:30;;;;;;;32.03;19.17;;;2.90;99.90;;;;;;4998839;28;20053;-84
2023/01/29 06:12:55;;;;;;;30.13;18.55;;;2.90;99.90;;;;;;4982925;28;20042;-84
2023/01/29 06:15:21;;;;;;;32.28;19.50;;;2.90;99.90;;;;;;4997875;28;20132;-84
2023/01/29 06:17:47;;;;;;;32.90;19.15;;;2.90;99.90;;;;;;4983107;28;20078;-84
2023/01/29 06:20:12;;;;;;;34.65;19.52;;;2.80;99.90;;;;;;4982750;28;20526;-87
2023/01/29 06:22:38;;;;;;;34.67;20.20;;;2.90;99.90;;;;;;4999210;28;20380;-84
2023/01/29 06:25:04;;;;;;;31.90;18.63;;;2.80;99.90;;;;;;5016007;28;20041;-84
2023/01/29 06:27:30;;;;;;;35.42;20.80;;;2.80;99.90;;;;;;4999126;28;20497;-84
2023/01/29 06:29:56;;;;;;;31.65;19.00;;;2.80;99.90;;;;;;4982013;28;20042;-84
2023/01/29 06:32:21;;;;;;;32.55;19.25;;;2.90;99.90;;;;;;4999040;28;20066;-84
2023/01/29 06:34:47;;;;;;;33.30;20.13;;;2.80;99.90;;;;;;4998645;28;20470;-84
2023/01/29 06:37:13;;;;;;;32.58;18.58;;;2.80;99.90;;;;;;4998822;28;20060;-84
2023/01/29 06:39:38;;;;;;;32.33;18.90;;;2.80;99.90;;;;;;4966395;28;20034;-84
2023/01/29 06:42:04;;;;;;;30.88;17.80;;;2.90;99.90;;;;;;4982144;28;20494;-84
2023/01/29 06:44:30;;;;;;;30.10;17.50;;;2.80;99.90;;;;;;4966334;28;20124;-84
2023/01/29 06:46:55;;;;;;;32.35;18.42;;;2.80;99.90;;;;;;5015854;28;20042;-84
2023/01/29 06:49:22;;;;;;;32.95;18.38;;;2.90;99.90;;;;;;4998382;28;20541;-84
2023/01/29 06:51:47;;;;;;;36.70;20.00;;;2.90;99.90;;;;;;4982200;28;20065;-84
2023/01/29 06:54:13;;;;;;;33.17;18.08;;;2.90;99.90;;;;;;4982280;28;20057;-85
2023/01/29 06:56:39;;;;;;;30.15;18.70;;;2.90;99.90;;;;;;4982466;28;20042;-84
2023/01/29 06:59:04;;;;;;;29.95;17.75;;;2.90;99.90;;;;;;4966113;28;20038;-84
2023/01/29 07:01:30;;;;;;;33.78;20.15;;;2.90;99.90;;;;;;4982606;28;20553;-86
2023/01/29 07:03:59;;;;;;;32.03;18.95;;;2.90;99.90;;;;;;4997762;28;20034;-84
2023/01/29 07:06:28;;;;;;;30.92;17.92;;;3.00;99.90;;;;;;4966853;28;20554;-86
2023/01/29 07:14:03;;;;;;;32.17;19.05;;;2.90;99.90;;;;;;5034022;28;20471;-90
2023/01/29 07:16:29;;;;;;;32.30;17.73;;;2.90;99.90;;;;;;5017739;28;20041;-90
2023/01/29 07:18:55;;;;;;;33.22;19.67;;;2.90;99.90;;;;;;5017676;28;20099;-93
2023/01/29 07:21:21;;;;;;;31.42;19.17;;;2.90;99.90;;;;;;5001537;28;20463;-93
2023/01/29 07:23:46;;;;;;;29.13;17.63;;;2.90;99.90;;;;;;5034141;28;20033;-94
2023/01/29 07:26:12;;;;;;;30.42;17.88;;;3.00;99.90;;;;;;5017322;28;20033;-93
2023/01/29 07:28:38;;;;;;;30.90;18.17;;;3.00;99.90;;;;;;5017482;28;20038;-93
2023/01/29 07:31:04;;;;;;;35.90;19.30;;;3.00;99.90;;;;;;5034095;28;20089;-93
2023/01/29 07:33:30;;;;;;;31.92;18.23;;;3.10;99.90;;;;;;5017523;28;20060;-93
2023/01/29 07:35:56;;;;;;;33.53;18.63;;;3.00;99.90;;;;;;5016997;28;20045;-91
2023/01/29 07:38:21;;;;;;;35.00;20.85;;;3.10;99.90;;;;;;5033631;28;20060;-90
2023/01/29 07:40:48;;;;;;;31.58;18.35;;;3.10;99.90;;;;;;5034575;28;20037;-91
2023/01/29 07:43:15;;;;;;;30.90;17.95;;;3.10;99.90;;;;;;5017074;28;20470;-94
2023/01/29 07:45:40;;;;;;;30.92;18.63;;;3.10;99.90;;;;;;5034338;28;20052;-94
2023/01/29 07:48:10;;;;;;;33.05;19.02;;;3.10;99.90;;;;;;5017489;28;20125;-94
2023/01/29 07:50:36;;;;;;;33.72;19.90;;;3.20;99.90;;;;;;5033980;28;20025;-93
2023/01/29 07:53:02;;;;;;;34.30;19.15;;;3.20;99.90;;;;;;5043598;28;20044;-94
2023/01/29 07:55:29;;;;;;;32.30;19.15;;;3.10;99.90;;;;;;5023072;28;20111;-94
2023/01/29 07:58:00;;;;;;;32.72;19.08;;;3.20;99.90;;;;;;5042103;28;20056;-94
2023/01/29 08:00:25;;;;;;;;;;;3.10;99.90;;;;;;5051569;28;20033;-94
2023/01/29 08:02:51;;;;;;;32.72;18.90;;;3.10;99.90;;;;;;5039267;28;19920;-94
2023/01/29 08:05:17;;;;;;;33.65;21.00;;;3.10;99.90;;;;;;5038717;28;20088;-94
2023/01/29 08:07:43;;;;;;;29.98;18.75;;;3.10;99.90;;;;;;5052081;28;20040;-94
2023/01/29 08:10:09;;;;;;;34.17;19.02;;;3.10;99.90;;;;;;5034346;28;20025;-94
2023/01/29 08:12:35;;;;;;;37.20;20.60;;;3.00;99.90;;;;;;5034115;28;20136;-94
2023/01/29 08:15:01;;;;;;;32.53;18.17;;;3.00;99.90;;;;;;5018593;28;20060;-94
2023/01/29 08:17:27;;;;;;;33.83;19.23;;;3.00;99.90;;;;;;5018665;28;20040;-94
2023/01/29 08:19:52;;;;;;;32.85;18.80;;;3.00;99.90;;;;;;5018637;28;20111;-94
2023/01/29 08:22:18;;;;;;;31.35;18.85;;;3.00;99.90;;;;;;5018209;28;20504;-94
2023/01/29 08:24:44;;;;;;;30.15;17.95;;;3.00;99.90;;;;;;5017703;28;20485;-91
2023/01/29 08:27:09;;;;;;;32.35;19.02;;;3.10;99.90;;;;;;5016683;28;20039;-91
2023/01/29 08:29:35;;;;;;;32.88;18.17;;;3.00;99.90;;;;;;5000306;28;20033;-91
2023/01/29 08:32:01;;;;;;;31.58;18.48;;;3.00;99.90;;;;;;5033471;28;20039;-91
2023/01/29 08:34:27;;;;;;;30.38;18.33;;;3.10;99.90;;;;;;5016996;28;20025;-91
2023/01/29 08:36:52;;;;;;;28.65;17.95;;;3.10;99.90;;;;;;5017318;28;20605;-90
2023/01/29 08:39:19;;;;;;;35.08;17.45;;;3.10;99.90;;;;;;5019899;28;20121;-92
2023/01/29 08:41:44;;;;;;;28.30;16.75;;;3.10;99.90;;;;;;5020827;28;20043;-91
2023/01/29 08:44:10;;;;;;;29.70;18.00;;;3.20;99.90;;;;;;5004658;28;20041;-90
2023/01/29 08:46:36;;;;;;;31.25;17.38;;;3.20;99.90;;;;;;5020446;28;20071;-91
2023/01/29 08:49:02;;;;;;;31.70;18.85;;;3.20;99.90;;;;;;5020619;28;20117;-91
2023/01/29 08:51:28;;;;;;;29.60;18.63;;;3.20;99.90;;;;;;5037528;28;20026;-92
2023/01/29 08:53:54;;;;;;;30.65;17.98;;;3.20;99.90;;;;;;5004254;28;20030;-91
2023/01/29 08:56:20;;;;;;;30.13;17.15;;;3.30;99.90;;;;;;5020492;28;20040;-95
2023/01/29 08:58:45;;;;;;;32.83;18.15;;;3.30;99.90;;;;;;5020894;28;20103;-91
2023/01/29 09:01:13;;;;;;;30.38;17.27;;;3.30;99.90;;;;;;5004405;28;20124;-91
2023/01/29 09:03:43;;;;;;;27.55;16.80;;;3.30;99.90;;;;;;5020250;28;20064;-90
2023/01/29 09:06:13;;;;;;;30.23;18.13;;;3.30;99.90;;;;;;5036745;28;20402;-91
2023/01/29 09:08:39;;;;;;;28.90;17.00;;;3.30;99.90;;;;;;5037161;28;20088;-90
2023/01/29 09:11:05;;;;;;;28.73;17.02;;;3.30;99.90;;;;;;5019848;28;20046;-90
2023/01/29 09:13:31;;;;;;;29.95;16.70;;;3.40;99.90;;;;;;5020174;28;20128;-90
2023/01/29 09:16:01;;;;;;;28.52;17.92;;;3.30;99.90;;;;;;5020700;28;20068;-94
2023/01/29 09:18:28;;;;;;;30.20;17.27;;;3.40;99.90;;;;;;5021274;28;20394;-94
2023/01/29 09:20:54;;;;;;;26.08;15.93;;;3.40;99.90;;;;;;5039939;28;20037;-93
2023/01/29 09:23:19;;;;;;;27.92;16.88;;;3.50;99.90;;;;;;5056602;28;20064;-92
2023/01/29 09:25:45;;;;;;;29.33;17.85;;;3.50;99.90;;;;;;5055071;28;20037;-91
2023/01/29 09:28:11;;;;;;;26.42;16.80;;;3.50;99.90;;;;;;5036696;28;20116;-91
2023/01/29 09:30:37;;;;;;;28.80;17.20;;;3.50;99.90;;;;;;5023368;28;20128;-94
2023/01/29 09:33:04;;;;;;;28.08;16.65;;;3.50;99.90;;;;;;5021386;28;20109;-93
2023/01/29 09:35:30;;;;;;;25.45;16.38;;;3.50;99.90;;;;;;5037092;28;20128;-94
2023/01/29 09:37:56;;;;;;;27.45;16.80;;;3.50;99.90;;;;;;5020559;28;20038;-94
2023/01/29 09:40:28;;;;;;;27.92;16.35;;;3.60;99.90;;;;;;5022285;28;20045;-94
2023/01/29 09:43:16;;;;;;;28.48;17.70;;;3.60;99.90;;;;;;5042185;28;20066;-95
2023/01/29 09:45:52;;;;;;;26.35;16.02;;;3.60;99.90;;;;;;5049103;28;20033;-94
2023/01/29 09:48:19;;;;;;;25.42;15.85;;;3.60;99.90;;;;;;5026312;28;20025;-94
2023/01/29 09:50:49;;;;;;;27.80;16.83;;;3.60;99.90;;;;;;5025410;28;20056;-94
2023/01/29 09:53:39;;;;;;;27.85;16.52;;;3.60;99.90;;;;;;5040084;28;20493;-94
2023/01/29 09:56:13;;;;;;;26.05;16.63;;;3.70;99.90;;;;;;5041190;28;20486;-94
2023/01/29 09:58:41;;;;;;;26.85;16.95;;;3.70;99.90;;;;;;5044354;28;20034;-94
2023/01/29 10:01:26;;;;;;;31.23;18.85;;;3.70;99.90;;;;;;5038771;28;20033;-94
2023/01/29 10:04:29;;;;;;;28.55;14.50;;;3.70;99.90;;;;;;5043844;28;20038;-94
2023/01/29 10:10:37;;;;;;;26.98;15.77;;;3.70;99.90;;;;;;5037804;28;20076;-90
2023/01/29 10:13:21;;;;;;;25.08;14.55;;;3.70;99.90;;;;;;5035423;28;20053;-91
2023/01/29 10:16:02;;;;;;;28.27;16.50;;;3.70;99.90;;;;;;5035894;28;20137;-90
2023/01/29 10:18:33;;;;;;;24.85;16.05;;;3.70;99.90;;;;;;5036007;28;20041;-90
2023/01/29 10:21:23;;;;;;;23.95;14.25;;;3.70;99.90;;;;;;5036696;28;20475;-93
2023/01/29 10:24:44;;;;;;;27.00;15.98;;;3.70;99.90;;;;;;5035735;28;20498;-94
2023/01/29 10:27:15;;;;;;;24.88;15.90;;;3.80;99.90;;;;;;5004781;28;20089;-95
2023/01/29 10:29:43;;;;;;;24.23;15.68;;;3.80;99.90;;;;;;5037620;28;20046;-94
2023/01/29 10:32:25;;;;;;;24.38;15.73;;;3.90;99.90;;;;;;5019082;28;20053;-94
2023/01/29 10:35:21;;;;;;;22.70;13.77;;;3.90;99.90;;;;;;5038204;28;20037;-94
2023/01/29 10:37:50;;;;;;;25.88;15.60;;;3.90;99.90;;;;;;5017763;28;20044;-93
2023/01/29 10:40:24;;;;;;;24.52;14.90;;;3.80;99.90;;;;;;5035285;28;20372;-93
2023/01/29 10:42:59;;;;;;;24.60;13.50;;;3.90;99.90;;;;;;5035532;28;20025;-92
2023/01/29 10:45:49;;;;;;;26.30;14.80;;;3.90;99.90;;;;;;5034994;28;20041;-92
2023/01/29 10:49:03;;;;;;;23.60;14.70;;;3.90;99.90;;;;;;5035185;28;20124;-93
2023/01/29 10:52:11;;;;;;;27.20;15.20;;;3.90;99.90;;;;;;5031793;28;20031;-93
2023/01/29 10:54:49;;;;;;;24.88;15.60;;;3.90;99.90;;;;;;5034734;28;20385;-93
2023/01/29 10:57:38;;;;;;;23.35;15.18;;;3.90;99.90;;;;;;5035988;28;20049;-95
2023/01/29 11:00:09;;;;;;;23.20;14.52;;;3.90;99.90;;;;;;5036147;28;20040;-93
2023/01/29 11:02:34;;;;;;;22.23;14.23;;;3.90;99.90;;;;;;5035325;28;20044;-91
2023/01/29 11:05:00;;;;;;;23.05;14.18;;;3.80;99.90;;;;;;5021342;28;20077;-89
2023/01/29 11:07:26;;;;;;;24.65;14.20;;;3.90;99.90;;;;;;5001807;28;20033;-92
2023/01/29 11:10:06;;;;;;;23.38;15.10;;;3.90;99.90;;;;;;5034789;28;20052;-93
2023/01/29 11:12:33;;;;;;;27.95;15.60;;;3.90;99.90;;;;;;5037280;28;20045;-91
2023/01/29 11:15:05;;;;;;;23.95;15.00;;;4.00;99.90;;;;;;5039333;28;20029;-92
2023/01/29 11:17:31;;;;;;;24.00;14.23;;;4.00;99.90;;;;;;5041018;28;20025;-90
2023/01/29 11:23:33;;;;;;;21.60;13.70;;;4.00;99.90;;;;;;5039694;28;20060;-92
2023/01/29 11:26:00;;;;;;;21.55;13.90;;;4.00;99.90;;;;;;5023899;28;20044;-92
2023/01/29 11:28:39;;;;;;;19.98;13.25;;;4.10;99.90;;;;;;5039215;28;20030;-90
2023/01/29 11:31:35;;;;;;;20.63;13.82;;;4.00;99.90;;;;;;5035820;28;20087;-91
2023/01/29 11:34:21;;;;;;;21.17;13.88;;;4.10;99.90;;;;;;5013775;28;20029;-91
2023/01/29 11:36:59;;;;;;;22.63;14.43;;;4.10;99.90;;;;;;5014343;28;20095;-90
2023/01/29 11:39:27;;;;;;;20.63;14.57;;;4.10;99.90;;;;;;5014316;28;20041;-90
2023/01/29 11:42:07;;;;;;;21.55;14.00;;;4.10;99.90;;;;;;5015067;28;20038;-92
2023/01/29 11:44:38;;;;;;;25.80;15.32;;;4.10;99.90;;;;;;4998113;28;20069;-90
2023/01/29 11:47:15;;;;;;;26.35;16.33;;;4.20;99.90;;;;;;5014444;28;20466;-90
2023/01/29 11:49:49;;;;;;;25.23;14.65;;;4.20;99.90;;;;;;4998111;28;20089;-90
2023/01/29 11:52:18;;;;;;;23.77;15.10;;;4.20;99.90;;;;;;5014434;28;20026;-90
2023/01/29 11:55:04;;;;;;;22.02;13.98;;;4.20;99.90;;;;;;5030962;28;20038;-90
2023/01/29 11:57:40;;;;;;;22.63;14.85;;;4.20;99.90;;;;;;5031178;28;20555;-90
2023/01/29 12:00:27;;;;;;;21.42;14.25;;;4.30;99.90;;;;;;5030800;28;20037;-89
2023/01/29 12:02:55;;;;;;;22.13;14.75;;;4.30;99.90;;;;;;5015178;28;20033;-89
2023/01/29 12:05:23;;;;;;;21.80;13.73;;;4.30;99.90;;;;;;5033917;28;20052;-89
2023/01/29 12:07:52;;;;;;;21.30;13.80;;;4.30;99.90;;;;;;5034205;28;20032;-89
2023/01/29 12:10:34;;;;;;;20.67;14.65;;;4.30;99.90;;;;;;5033684;28;20030;-89
2023/01/29 12:13:27;;;;;;;21.25;14.45;;;4.30;99.90;;;;;;5033188;28;20055;-90
2023/01/29 12:16:17;;;;;;;22.67;15.25;;;4.40;99.90;;;;;;5030100;28;20088;-90
2023/01/29 12:18:53;;;;;;;23.13;15.95;;;4.40;99.90;;;;;;5035435;28;20041;-93
2023/01/29 12:21:31;;;;;;;26.58;16.10;;;4.40;99.90;;;;;;5037639;28;20038;-93
2023/01/29 12:24:01;;;;;;;26.30;16.70;;;4.50;99.90;;;;;;5038311;28;20072;-94
2023/01/29 12:26:43;;;;;;;25.58;17.02;;;4.50;99.90;;;;;;5040294;28;20061;-92
2023/01/29 12:29:36;;;;;;;26.70;16.08;;;4.50;99.90;;;;;;5041266;28;20025;-93
2023/01/29 12:32:21;;;;;;;24.25;16.38;;;4.50;99.90;;;;;;5044870;28;20039;-92
2023/01/29 12:35:15;;;;;;;24.67;16.58;;;4.60;99.90;;;;;;5041172;28;20497;-91
2023/01/29 12:37:51;;;;;;;24.77;17.67;;;4.60;99.90;;;;;;5033285;28;20033;-92
2023/01/29 12:40:20;;;;;;;24.75;16.98;;;4.60;99.90;;;;;;5033777;28;20029;-90
2023/01/29 12:42:54;;;;;;;27.50;17.95;;;4.60;99.90;;;;;;5033392;28;20033;-90
2023/01/29 12:45:23;;;;;;;28.80;17.50;;;4.60;99.90;;;;;;5032920;28;20021;-90
2023/01/29 12:47:56;;;;;;;26.15;16.67;;;4.60;99.90;;;;;;5033383;28;20098;-90
2023/01/29 12:50:27;;;;;;;21.00;15.52;;;4.60;99.90;;;;;;5033310;28;20026;-91
2023/01/29 12:53:00;;;;;;;23.33;16.45;;;4.60;99.90;;;;;;5034105;28;20060;-94
2023/01/29 12:55:37;;;;;;;26.33;17.73;;;4.60;99.90;;;;;;5033563;28;20034;-90
2023/01/29 12:58:21;;;;;;;29.02;17.50;;;4.60;99.90;;;;;;5033365;28;20064;-91
2023/01/29 13:00:50;;;;;;;24.85;16.67;;;4.60;99.90;;;;;;5033500;28;20033;-89
2023/01/29 13:03:24;;;;;;;25.85;16.63;;;4.70;99.90;;;;;;5032895;28;20501;-91
2023/01/29 13:06:01;;;;;;;27.10;17.15;;;4.70;99.90;;;;;;5033020;28;20026;-90
2023/01/29 13:08:34;;;;;;;26.23;16.98;;;4.70;99.90;;;;;;5033130;28;20049;-89
2023/01/29 13:11:09;;;;;;;25.55;17.05;;;4.70;99.90;;;;;;5033102;28;20025;-90
2023/01/29 13:13:57;;;;;;;25.05;16.90;;;4.70;99.90;;;;;;5032986;28;20044;-91
2023/01/29 13:16:31;;;;;;;28.48;16.65;;;4.70;99.90;;;;;;5033550;28;20033;-91
2023/01/29 13:18:58;;;;;;;27.25;18.60;;;4.70;99.90;;;;;;5032766;28;20482;-90
2023/01/29 13:21:33;;;;;;;26.90;17.50;;;4.70;99.90;;;;;;5032885;28;20095;-90
2023/01/29 13:24:04;;;;;;;28.77;19.15;;;4.70;99.90;;;;;;5033772;28;20084;-91
2023/01/29 13:26:31;;;;;;;28.90;17.75;;;4.70;99.90;;;;;;5036621;28;20483;-91
2023/01/29 13:28:57;;;;;;;31.60;20.15;;;4.70;99.90;;;;;;5020328;28;20053;-91
2023/01/29 13:31:36;;;;;;;29.50;18.08;;;4.70;99.90;;;;;;5020134;28;20460;-91
2023/01/29 13:34:30;;;;;;;30.08;20.35;;;4.70;99.90;;;;;;5037403;28;20021;-91
2023/01/29 13:37:30;;;;;;;28.80;19.23;;;4.70;99.90;;;;;;5036620;28;20083;-91
2023/01/29 13:39:58;;;;;;;29.75;19.20;;;4.70;99.90;;;;;;5001431;28;20038;-91